createdAt,value
2022-12-18T00:02:00.673Z,53.53
2022-12-18T00:07:04.159Z,52.20
2022-12-18T00:17:18.936Z,59.20
2022-12-18T00:22:21.949Z,57.07
2022-12-18T00:27:25.116Z,54.07
2022-12-18T00:32:28.184Z,57.30
2022-12-18T00:37:31.613Z,62.53
2022-12-18T00:42:52.999Z,51.03
2022-12-18T00:47:56.716Z,48.23
2022-12-18T00:52:59.727Z,56.93
2022-12-18T00:58:02.746Z,55.03
2022-12-18T01:03:06.452Z,49.93
2022-12-18T01:08:09.821Z,70.00
2022-12-18T01:13:12.863Z,60.70
2022-12-18T01:18:15.817Z,50.23
2022-12-18T01:23:18.878Z,54.37
2022-12-18T01:28:22.007Z,63.00
2022-12-18T01:33:24.988Z,45.53
2022-12-18T01:38:29.769Z,42.43
2022-12-18T01:43:49.387Z,48.37
2022-12-18T01:49:00.962Z,52.50
2022-12-18T01:54:04.623Z,39.77
2022-12-18T01:59:10.417Z,47.27
2022-12-18T02:04:39.739Z,43.00
2022-12-18T02:10:13.871Z,39.83
2022-12-18T02:15:35.600Z,51.53
2022-12-18T02:21:06.661Z,46.07
2022-12-18T02:26:28.386Z,45.30
2022-12-18T02:31:39.853Z,46.87
2022-12-18T02:36:45.979Z,43.43
2022-12-18T02:41:50.403Z,41.80
2022-12-18T02:46:55.606Z,44.37
2022-12-18T02:52:22.746Z,34.53
2022-12-18T02:57:41.770Z,39.00
2022-12-18T03:03:30.502Z,40.47
2022-12-18T03:08:47.802Z,35.37
2022-12-18T03:13:57.439Z,48.47
2022-12-18T03:19:04.876Z,36.70
2022-12-18T03:24:11.194Z,39.57
2022-12-18T03:29:39.281Z,37.53
2022-12-18T03:34:45.075Z,27.97
2022-12-18T03:39:51.328Z,41.10
2022-12-18T03:45:08.196Z,37.57
2022-12-18T03:50:31.143Z,40.27
2022-12-18T03:55:39.194Z,34.40
2022-12-18T04:00:43.985Z,30.30
2022-12-18T04:05:51.605Z,28.60
2022-12-18T04:10:58.332Z,30.93
2022-12-18T04:16:02.637Z,40.90
2022-12-18T04:21:05.884Z,30.00
2022-12-18T04:26:09.912Z,24.80
2022-12-18T04:31:22.724Z,28.67
2022-12-18T04:36:26.602Z,30.00
2022-12-18T04:41:30.458Z,31.23
2022-12-18T04:46:34.787Z,25.40
2022-12-18T04:51:41.366Z,29.27
2022-12-18T04:56:44.370Z,29.47
2022-12-18T05:01:47.512Z,27.00
2022-12-18T05:06:50.605Z,29.53
2022-12-18T05:11:53.572Z,24.40
2022-12-18T05:17:00.719Z,27.77
2022-12-18T05:22:08.324Z,26.63
2022-12-18T05:27:11.624Z,28.43
2022-12-18T05:32:14.614Z,27.30
2022-12-18T05:37:18.168Z,21.77
2022-12-18T05:42:21.487Z,32.23
2022-12-18T05:47:24.548Z,25.07
2022-12-18T05:52:27.602Z,22.40
2022-12-18T05:57:30.756Z,21.80
2022-12-18T06:02:33.908Z,27.27
2022-12-18T06:07:39.396Z,26.87
2022-12-18T06:12:42.430Z,30.80
2022-12-18T06:17:45.532Z,21.00
2022-12-18T06:22:49.627Z,27.17
2022-12-18T06:27:52.641Z,22.93
2022-12-18T06:32:56.875Z,28.03
2022-12-18T06:38:02.149Z,23.57
2022-12-18T06:43:05.110Z,23.57
2022-12-18T06:48:08.228Z,25.83
2022-12-18T06:53:11.268Z,22.03
2022-12-18T06:58:14.413Z,22.33
2022-12-18T07:03:17.468Z,30.87
2022-12-18T07:08:20.497Z,19.70
2022-12-18T07:13:23.970Z,24.20
2022-12-18T07:18:26.891Z,26.97
2022-12-18T07:23:29.842Z,20.00
2022-12-18T07:28:33.896Z,24.23
2022-12-18T07:33:37.443Z,25.33
2022-12-18T07:38:41.014Z,25.50
2022-12-18T07:43:44.666Z,28.80
2022-12-18T07:48:49.288Z,27.23
2022-12-18T07:53:53.461Z,29.90
2022-12-18T07:58:57.168Z,27.57
2022-12-18T08:04:00.373Z,22.97
2022-12-18T08:09:03.808Z,27.30
2022-12-18T08:14:06.783Z,26.80
2022-12-18T08:19:09.867Z,19.67
2022-12-18T08:24:12.945Z,21.43
2022-12-18T08:29:21.224Z,20.37
2022-12-18T08:34:24.762Z,23.60
2022-12-18T08:39:27.741Z,17.87
2022-12-18T08:44:39.704Z,17.93
2022-12-18T08:49:42.759Z,23.47
2022-12-18T08:54:45.762Z,15.70
2022-12-18T08:59:49.547Z,15.53
2022-12-18T09:04:57.399Z,17.13
2022-12-18T09:10:00.862Z,19.10
2022-12-18T09:15:04.002Z,20.00
2022-12-18T09:20:07.655Z,18.17
2022-12-18T09:25:13.174Z,18.30
2022-12-18T09:30:16.208Z,23.63
2022-12-18T09:35:19.282Z,30.60
2022-12-18T09:40:26.996Z,30.83
2022-12-18T09:45:34.708Z,40.33
2022-12-18T09:50:40.944Z,41.23
2022-12-18T09:55:47.808Z,33.77
2022-12-18T10:00:56.761Z,31.07
2022-12-18T10:06:29.276Z,29.97
2022-12-18T10:11:57.202Z,33.77
2022-12-18T10:17:25.294Z,28.97
2022-12-18T10:22:43.943Z,21.63
2022-12-18T10:27:47.601Z,26.07
2022-12-18T10:32:50.613Z,21.77
2022-12-18T10:38:17.344Z,23.00
2022-12-18T10:43:46.813Z,18.23
2022-12-18T10:48:50.249Z,22.97
2022-12-18T10:53:57.178Z,14.20
2022-12-18T10:59:05.489Z,18.43
2022-12-18T11:04:17.050Z,16.30
2022-12-18T11:09:40.610Z,15.40
2022-12-18T11:14:47.125Z,11.73
2022-12-18T11:20:28.684Z,17.67
2022-12-18T11:25:35.166Z,16.73
2022-12-18T11:30:39.254Z,14.80
2022-12-18T11:35:48.140Z,16.03
2022-12-18T11:41:03.139Z,15.90
2022-12-18T11:46:19.577Z,11.47
2022-12-18T11:51:40.026Z,25.10
2022-12-18T11:57:09.494Z,13.27
2022-12-18T12:02:43.971Z,10.53
2022-12-18T12:08:03.102Z,12.47
2022-12-18T12:14:26.513Z,11.73
2022-12-18T12:20:00.391Z,14.10
2022-12-18T12:25:28.354Z,11.20
2022-12-18T12:37:38.068Z,12.47
2022-12-18T12:43:16.533Z,13.33
2022-12-18T12:48:37.123Z,14.77
2022-12-18T12:53:57.754Z,11.37
2022-12-18T12:59:25.380Z,11.93
2022-12-18T13:05:35.329Z,10.27
2022-12-18T13:10:44.247Z,11.57
2022-12-18T13:16:21.780Z,8.13
2022-12-18T13:21:54.734Z,20.43
2022-12-18T13:27:57.545Z,13.53
2022-12-18T13:34:16.434Z,12.90
2022-12-18T13:39:32.953Z,9.00
2022-12-18T13:44:42.451Z,15.53
2022-12-18T13:49:47.836Z,12.90
2022-12-18T13:54:56.720Z,13.90
2022-12-18T14:00:18.030Z,13.43
2022-12-18T14:06:18.719Z,12.60
2022-12-18T14:11:28.941Z,16.07
2022-12-18T14:17:03.712Z,14.47
2022-12-18T14:22:38.772Z,12.40
2022-12-18T14:28:19.193Z,12.63
2022-12-18T14:33:42.953Z,16.63
2022-12-18T14:38:59.970Z,12.77
2022-12-18T14:44:15.449Z,17.57
2022-12-18T14:49:31.723Z,10.20
2022-12-18T14:54:38.510Z,10.77
2022-12-18T14:59:41.877Z,13.93
2022-12-18T15:05:30.600Z,16.13
2022-12-18T15:10:35.650Z,12.53
2022-12-18T15:15:38.772Z,9.60
2022-12-18T15:20:57.715Z,6.73
2022-12-18T15:26:27.009Z,12.43
2022-12-18T15:37:20.314Z,17.27
2022-12-18T15:43:00.135Z,14.07
2022-12-18T15:48:30.825Z,13.47
2022-12-18T15:59:01.963Z,14.30
2022-12-18T16:04:27.126Z,13.07
2022-12-18T16:09:34.597Z,17.20
2022-12-18T16:14:37.724Z,20.50
2022-12-18T16:19:41.545Z,23.37
2022-12-18T16:24:44.821Z,8.70
2022-12-18T16:29:48.363Z,11.37
2022-12-18T16:34:51.440Z,16.40
2022-12-18T16:39:55.712Z,15.20
2022-12-18T16:45:04.714Z,14.73
2022-12-18T16:50:10.169Z,16.03
2022-12-18T16:55:13.221Z,15.10
2022-12-18T17:00:16.814Z,8.50
2022-12-18T17:05:32.360Z,13.27
2022-12-18T17:10:46.560Z,16.40
2022-12-18T17:16:21.378Z,16.07
2022-12-18T17:21:45.641Z,22.40
2022-12-18T17:27:06.553Z,14.70
2022-12-18T17:32:21.556Z,24.00
2022-12-18T17:37:44.871Z,21.50
2022-12-18T17:42:53.958Z,18.37
2022-12-18T17:48:09.891Z,14.57
2022-12-18T17:53:28.163Z,13.13
2022-12-18T17:58:32.170Z,24.07
2022-12-18T18:03:46.909Z,20.03
2022-12-18T18:08:59.539Z,19.77
2022-12-18T18:14:10.437Z,20.67
2022-12-18T18:19:17.548Z,14.23
2022-12-18T18:24:27.031Z,18.03
2022-12-18T18:29:31.376Z,17.53
2022-12-18T18:34:34.511Z,16.03
2022-12-18T18:39:38.042Z,13.07
2022-12-18T18:44:45.732Z,13.17
2022-12-18T18:49:51.954Z,22.97
2022-12-18T18:55:12.398Z,16.77
2022-12-18T19:00:16.901Z,11.87
2022-12-18T19:05:32.351Z,14.90
2022-12-18T19:10:42.007Z,14.63
2022-12-18T19:15:46.221Z,16.03
2022-12-18T19:21:27.106Z,14.87
2022-12-18T19:26:50.899Z,15.37
2022-12-18T19:32:16.528Z,14.27
2022-12-18T19:37:29.883Z,12.37
2022-12-18T19:42:56.392Z,14.63
2022-12-18T19:48:04.118Z,12.27
2022-12-18T19:53:21.720Z,12.43
2022-12-18T19:58:35.356Z,10.73
2022-12-18T20:04:20.642Z,9.00
2022-12-18T20:09:57.113Z,9.93
2022-12-18T20:15:15.211Z,13.20
2022-12-18T20:20:22.705Z,10.43
2022-12-18T20:25:26.294Z,10.90
2022-12-18T20:30:30.014Z,8.87
2022-12-18T20:35:33.886Z,21.90
2022-12-18T20:40:40.737Z,6.20
2022-12-18T20:45:44.217Z,8.50
2022-12-18T20:51:23.480Z,10.43
2022-12-18T20:56:46.149Z,8.93
2022-12-18T21:02:15.649Z,9.80
2022-12-18T21:07:28.592Z,10.27
2022-12-18T21:13:02.149Z,9.60
2022-12-18T21:18:22.462Z,9.30
2022-12-18T21:23:35.571Z,99.00
2022-12-18T21:28:53.467Z,14.07
2022-12-18T21:34:09.556Z,12.17
2022-12-18T21:39:18.221Z,6.87
2022-12-18T21:44:24.391Z,9.03
2022-12-18T21:49:27.648Z,9.93
2022-12-18T21:54:30.940Z,8.67
2022-12-18T21:59:37.483Z,8.43
2022-12-18T22:04:53.213Z,8.03
2022-12-18T22:09:58.385Z,13.13
2022-12-18T22:15:04.629Z,8.30
2022-12-18T22:20:09.515Z,7.73
2022-12-18T22:25:12.864Z,8.30
2022-12-18T22:30:16.047Z,7.20
2022-12-18T22:35:19.203Z,7.03
2022-12-18T22:40:26.852Z,9.50
2022-12-18T22:45:30.148Z,7.97
2022-12-18T22:50:33.979Z,11.37
2022-12-18T22:55:36.974Z,8.40
2022-12-18T23:00:41.063Z,9.17
2022-12-18T23:06:11.125Z,8.57
2022-12-18T23:11:29.115Z,8.07
2022-12-18T23:16:44.540Z,10.70
2022-12-18T23:22:12.655Z,8.57
2022-12-18T23:27:32.073Z,9.67
2022-12-18T23:32:58.846Z,9.53
2022-12-18T23:38:22.973Z,9.37
2022-12-18T23:43:50.409Z,9.80
2022-12-18T23:49:00.884Z,13.53
2022-12-18T23:54:10.444Z,13.47
2022-12-18T23:59:21.356Z,8.20
